sensor_id;sensor_type;location;lat;lon;timestamp;pressure;altitude;pressure_sealevel;temperature;humidity
71917;BME280;59793;46.506;6.674;2022-12-19T00:03:30;98216.56;;;5.54;72.43
71917;BME280;59793;46.506;6.674;2022-12-19T00:05:59;98222.13;;;5.47;72.94
71917;BME280;59793;46.506;6.674;2022-12-19T00:08:24;98221.09;;;5.48;72.81
71917;BME280;59793;46.506;6.674;2022-12-19T00:10:57;98228.09;;;5.53;72.51
71917;BME280;59793;46.506;6.674;2022-12-19T00:13:22;98227.34;;;5.47;73.41
71917;BME280;59793;46.506;6.674;2022-12-19T00:15:48;98229.19;;;5.47;73.45
71917;BME280;59793;46.506;6.674;2022-12-19T00:18:13;98231.25;;;5.50;73.81
71917;BME280;59793;46.506;6.674;2022-12-19T00:20:38;98217.28;;;5.36;74.54
71917;BME280;59793;46.506;6.674;2022-12-19T00:23:03;98230.13;;;5.32;73.93
71917;BME280;59793;46.506;6.674;2022-12-19T00:25:29;98218.28;;;5.40;73.68
71917;BME280;59793;46.506;6.674;2022-12-19T00:27:54;98217.28;;;5.36;73.90
71917;BME280;59793;46.506;6.674;2022-12-19T00:30:19;98209.97;;;5.38;73.92
71917;BME280;59793;46.506;6.674;2022-12-19T00:32:44;98212.59;;;5.38;73.79
71917;BME280;59793;46.506;6.674;2022-12-19T00:35:09;98205.28;;;5.35;74.16
71917;BME280;59793;46.506;6.674;2022-12-19T00:37:35;98210.91;;;5.23;74.49
71917;BME280;59793;46.506;6.674;2022-12-19T00:40:00;98215.09;;;5.19;74.66
71917;BME280;59793;46.506;6.674;2022-12-19T00:42:26;98207.34;;;5.09;75.01
71917;BME280;59793;46.506;6.674;2022-12-19T00:44:51;98203.44;;;5.11;75.26
71917;BME280;59793;46.506;6.674;2022-12-19T00:47:17;98201.28;;;5.18;75.04
71917;BME280;59793;46.506;6.674;2022-12-19T00:49:42;98192.03;;;5.26;74.53
71917;BME280;59793;46.506;6.674;2022-12-19T00:52:07;98196.47;;;5.31;74.20
71917;BME280;59793;46.506;6.674;2022-12-19T00:54:32;98200.06;;;5.35;74.47
71917;BME280;59793;46.506;6.674;2022-12-19T00:56:58;98196.34;;;5.41;74.03
71917;BME280;59793;46.506;6.674;2022-12-19T00:59:23;98203.91;;;5.42;73.52
71917;BME280;59793;46.506;6.674;2022-12-19T01:01:48;98207.47;;;5.51;73.08
71917;BME280;59793;46.506;6.674;2022-12-19T01:04:13;98206.34;;;5.58;72.94
71917;BME280;59793;46.506;6.674;2022-12-19T01:06:39;98203.25;;;5.56;73.44
71917;BME280;59793;46.506;6.674;2022-12-19T01:09:04;98201.28;;;5.42;74.60
71917;BME280;59793;46.506;6.674;2022-12-19T01:11:30;98201.00;;;5.44;74.52
71917;BME280;59793;46.506;6.674;2022-12-19T01:14:13;98196.91;;;5.38;74.74
71917;BME280;59793;46.506;6.674;2022-12-19T01:16:38;98194.34;;;5.33;74.91
71917;BME280;59793;46.506;6.674;2022-12-19T01:19:04;98192.63;;;5.23;75.43
71917;BME280;59793;46.506;6.674;2022-12-19T01:21:29;98185.78;;;5.27;75.44
71917;BME280;59793;46.506;6.674;2022-12-19T01:23:54;98185.94;;;5.36;75.01
71917;BME280;59793;46.506;6.674;2022-12-19T01:26:20;98198.97;;;5.41;74.80
71917;BME280;59793;46.506;6.674;2022-12-19T01:28:45;98201.94;;;5.53;74.33
71917;BME280;59793;46.506;6.674;2022-12-19T01:31:10;98203.94;;;5.61;74.55
71917;BME280;59793;46.506;6.674;2022-12-19T01:33:35;98201.84;;;5.63;74.04
71917;BME280;59793;46.506;6.674;2022-12-19T01:36:01;98185.38;;;5.63;74.12
71917;BME280;59793;46.506;6.674;2022-12-19T01:38:31;98184.31;;;5.64;73.94
71917;BME280;59793;46.506;6.674;2022-12-19T01:40:57;98175.16;;;5.66;73.94
71917;BME280;59793;46.506;6.674;2022-12-19T01:43:23;98191.31;;;5.68;73.46
71917;BME280;59793;46.506;6.674;2022-12-19T01:45:52;98199.50;;;5.62;74.15
71917;BME280;59793;46.506;6.674;2022-12-19T01:53:18;98189.88;;;5.57;74.20
71917;BME280;59793;46.506;6.674;2022-12-19T01:55:44;98176.81;;;5.57;74.13
71917;BME280;59793;46.506;6.674;2022-12-19T01:58:10;98168.31;;;5.46;74.71
71917;BME280;59793;46.506;6.674;2022-12-19T02:00:37;98169.94;;;5.42;75.17
71917;BME280;59793;46.506;6.674;2022-12-19T02:03:05;98166.53;;;5.42;75.02
71917;BME280;59793;46.506;6.674;2022-12-19T02:05:32;98172.88;;;5.60;74.29
71917;BME280;59793;46.506;6.674;2022-12-19T02:07:57;98165.72;;;5.65;74.10
71917;BME280;59793;46.506;6.674;2022-12-19T02:10:24;98173.31;;;5.43;74.93
71917;BME280;59793;46.506;6.674;2022-12-19T02:12:49;98179.31;;;5.43;75.00
71917;BME280;59793;46.506;6.674;2022-12-19T02:15:14;98172.31;;;5.39;74.79
71917;BME280;59793;46.506;6.674;2022-12-19T02:17:56;98166.81;;;5.40;74.85
71917;BME280;59793;46.506;6.674;2022-12-19T02:20:50;98178.53;;;5.43;74.22
71917;BME280;59793;46.506;6.674;2022-12-19T02:26:02;98178.00;;;5.46;74.07
71917;BME280;59793;46.506;6.674;2022-12-19T02:31:14;98170.25;;;5.36;74.33
71917;BME280;59793;46.506;6.674;2022-12-19T02:33:54;98172.75;;;5.46;74.10
71917;BME280;59793;46.506;6.674;2022-12-19T02:36:31;98171.69;;;5.47;73.94
71917;BME280;59793;46.506;6.674;2022-12-19T02:39:05;98177.78;;;5.42;73.74
71917;BME280;59793;46.506;6.674;2022-12-19T02:41:36;98179.16;;;5.35;74.15
71917;BME280;59793;46.506;6.674;2022-12-19T02:44:14;98165.97;;;5.21;74.35
71917;BME280;59793;46.506;6.674;2022-12-19T02:46:41;98176.38;;;5.02;75.18
71917;BME280;59793;46.506;6.674;2022-12-19T02:49:08;98180.06;;;4.96;75.29
71917;BME280;59793;46.506;6.674;2022-12-19T02:51:34;98169.63;;;4.96;75.50
71917;BME280;59793;46.506;6.674;2022-12-19T02:54:00;98166.59;;;5.13;74.74
71917;BME280;59793;46.506;6.674;2022-12-19T03:02:03;98160.56;;;5.12;75.32
71917;BME280;59793;46.506;6.674;2022-12-19T03:07:27;98164.56;;;5.34;74.68
71917;BME280;59793;46.506;6.674;2022-12-19T03:12:24;98171.31;;;5.35;75.10
71917;BME280;59793;46.506;6.674;2022-12-19T03:14:52;98173.88;;;5.40;74.78
71917;BME280;59793;46.506;6.674;2022-12-19T03:17:17;98169.78;;;5.34;75.22
71917;BME280;59793;46.506;6.674;2022-12-19T03:19:42;98161.09;;;5.14;75.00
71917;BME280;59793;46.506;6.674;2022-12-19T03:22:08;98161.94;;;5.10;75.24
71917;BME280;59793;46.506;6.674;2022-12-19T03:24:33;98151.75;;;5.08;74.76
71917;BME280;59793;46.506;6.674;2022-12-19T03:27:01;98152.28;;;5.05;74.83
71917;BME280;59793;46.506;6.674;2022-12-19T03:29:35;98157.50;;;5.05;74.08
71917;BME280;59793;46.506;6.674;2022-12-19T03:32:03;98162.84;;;4.95;74.28
71917;BME280;59793;46.506;6.674;2022-12-19T03:34:37;98155.22;;;4.74;74.09
71917;BME280;59793;46.506;6.674;2022-12-19T03:37:04;98165.97;;;4.68;73.81
71917;BME280;59793;46.506;6.674;2022-12-19T03:39:31;98168.38;;;4.59;73.95
71917;BME280;59793;46.506;6.674;2022-12-19T03:41:57;98164.69;;;4.65;73.96
71917;BME280;59793;46.506;6.674;2022-12-19T03:44:42;98153.69;;;4.68;73.50
71917;BME280;59793;46.506;6.674;2022-12-19T03:50:02;98158.50;;;4.85;72.96
71917;BME280;59793;46.506;6.674;2022-12-19T03:55:02;98152.81;;;5.07;73.16
71917;BME280;59793;46.506;6.674;2022-12-19T03:57:30;98156.84;;;5.18;72.94
71917;BME280;59793;46.506;6.674;2022-12-19T03:59:59;98157.09;;;5.22;72.90
71917;BME280;59793;46.506;6.674;2022-12-19T04:02:26;98150.19;;;5.31;72.95
71917;BME280;59793;46.506;6.674;2022-12-19T04:04:53;98157.28;;;5.31;72.95
71917;BME280;59793;46.506;6.674;2022-12-19T04:07:19;98163.09;;;5.22;73.68
71917;BME280;59793;46.506;6.674;2022-12-19T04:09:46;98169.34;;;5.26;73.58
71917;BME280;59793;46.506;6.674;2022-12-19T04:12:17;98164.66;;;5.23;73.95
71917;BME280;59793;46.506;6.674;2022-12-19T04:14:42;98161.53;;;5.21;74.53
71917;BME280;59793;46.506;6.674;2022-12-19T04:25:00;98147.06;;;5.53;74.27
71917;BME280;59793;46.506;6.674;2022-12-19T04:27:27;98143.94;;;5.51;73.92
71917;BME280;59793;46.506;6.674;2022-12-19T04:29:53;98144.53;;;5.48;74.49
71917;BME280;59793;46.506;6.674;2022-12-19T04:32:21;98149.03;;;5.42;75.21
71917;BME280;59793;46.506;6.674;2022-12-19T04:34:48;98149.75;;;5.48;75.42
71917;BME280;59793;46.506;6.674;2022-12-19T04:37:13;98141.34;;;5.51;75.67
71917;BME280;59793;46.506;6.674;2022-12-19T04:39:39;98130.41;;;5.49;76.00
71917;BME280;59793;46.506;6.674;2022-12-19T04:42:06;98137.16;;;5.50;76.24
71917;BME280;59793;46.506;6.674;2022-12-19T04:44:31;98143.94;;;5.51;76.30
71917;BME280;59793;46.506;6.674;2022-12-19T04:46:56;98141.06;;;5.53;76.28
71917;BME280;59793;46.506;6.674;2022-12-19T04:49:21;98137.69;;;5.52;76.29
71917;BME280;59793;46.506;6.674;2022-12-19T04:51:46;98133.16;;;5.58;76.27
71917;BME280;59793;46.506;6.674;2022-12-19T04:54:12;98139.09;;;5.63;76.09
71917;BME280;59793;46.506;6.674;2022-12-19T04:56:37;98138.81;;;5.65;75.98
71917;BME280;59793;46.506;6.674;2022-12-19T04:59:02;98136.50;;;5.63;75.98
71917;BME280;59793;46.506;6.674;2022-12-19T05:01:27;98127.16;;;5.57;75.87
71917;BME280;59793;46.506;6.674;2022-12-19T05:03:53;98136.19;;;5.46;76.68
71917;BME280;59793;46.506;6.674;2022-12-19T05:06:18;98135.19;;;5.42;76.92
71917;BME280;59793;46.506;6.674;2022-12-19T05:08:44;98136.03;;;5.37;77.27
71917;BME280;59793;46.506;6.674;2022-12-19T05:11:11;98136.91;;;5.27;77.36
71917;BME280;59793;46.506;6.674;2022-12-19T05:13:36;98145.25;;;5.30;77.27
71917;BME280;59793;46.506;6.674;2022-12-19T05:16:05;98133.13;;;5.39;76.80
71917;BME280;59793;46.506;6.674;2022-12-19T05:18:31;98129.53;;;5.35;77.27
71917;BME280;59793;46.506;6.674;2022-12-19T05:20:56;98129.19;;;5.41;77.09
71917;BME280;59793;46.506;6.674;2022-12-19T05:23:22;98125.72;;;5.46;76.87
71917;BME280;59793;46.506;6.674;2022-12-19T05:25:47;98127.91;;;5.39;76.90
71917;BME280;59793;46.506;6.674;2022-12-19T05:28:13;98121.72;;;5.30;76.35
71917;BME280;59793;46.506;6.674;2022-12-19T05:30:38;98121.47;;;5.07;77.79
71917;BME280;59793;46.506;6.674;2022-12-19T05:33:04;98111.56;;;5.04;78.04
71917;BME280;59793;46.506;6.674;2022-12-19T05:35:29;98104.41;;;5.15;77.22
71917;BME280;59793;46.506;6.674;2022-12-19T05:37:54;98115.72;;;5.05;77.51
71917;BME280;59793;46.506;6.674;2022-12-19T05:40:19;98115.50;;;5.01;77.09
71917;BME280;59793;46.506;6.674;2022-12-19T05:42:45;98114.34;;;4.89;77.50
71917;BME280;59793;46.506;6.674;2022-12-19T05:45:10;98117.88;;;4.98;77.00
71917;BME280;59793;46.506;6.674;2022-12-19T05:47:35;98111.19;;;4.92;77.45
71917;BME280;59793;46.506;6.674;2022-12-19T05:50:01;98113.19;;;5.00;76.84
71917;BME280;59793;46.506;6.674;2022-12-19T05:52:26;98119.06;;;5.11;77.93
71917;BME280;59793;46.506;6.674;2022-12-19T05:54:51;98124.84;;;5.08;77.79
71917;BME280;59793;46.506;6.674;2022-12-19T05:57:17;98118.34;;;5.05;76.61
71917;BME280;59793;46.506;6.674;2022-12-19T05:59:42;98122.00;;;5.04;76.37
71917;BME280;59793;46.506;6.674;2022-12-19T06:02:07;98124.72;;;4.94;76.69
71917;BME280;59793;46.506;6.674;2022-12-19T06:04:33;98112.28;;;4.86;77.03
71917;BME280;59793;46.506;6.674;2022-12-19T06:06:58;98111.66;;;4.94;76.34
71917;BME280;59793;46.506;6.674;2022-12-19T06:09:23;98118.72;;;4.93;76.65
71917;BME280;59793;46.506;6.674;2022-12-19T06:11:48;98121.78;;;5.00;77.32
71917;BME280;59793;46.506;6.674;2022-12-19T06:14:14;98130.25;;;4.92;76.91
71917;BME280;59793;46.506;6.674;2022-12-19T06:16:39;98127.41;;;4.89;76.33
71917;BME280;59793;46.506;6.674;2022-12-19T06:19:04;98120.97;;;4.81;76.91
71917;BME280;59793;46.506;6.674;2022-12-19T06:21:30;98120.34;;;4.89;76.89
71917;BME280;59793;46.506;6.674;2022-12-19T06:23:55;98113.28;;;4.90;77.39
71917;BME280;59793;46.506;6.674;2022-12-19T06:26:20;98125.00;;;4.92;77.57
71917;BME280;59793;46.506;6.674;2022-12-19T06:28:50;98109.13;;;4.89;77.74
71917;BME280;59793;46.506;6.674;2022-12-19T06:31:15;98109.59;;;4.67;79.06
71917;BME280;59793;46.506;6.674;2022-12-19T06:33:41;98118.91;;;4.73;78.26
71917;BME280;59793;46.506;6.674;2022-12-19T06:36:10;98124.81;;;4.84;78.69
71917;BME280;59793;46.506;6.674;2022-12-19T06:38:36;98119.81;;;4.87;78.44
71917;BME280;59793;46.506;6.674;2022-12-19T06:41:01;98113.06;;;4.86;78.45
71917;BME280;59793;46.506;6.674;2022-12-19T06:43:45;98120.63;;;4.88;78.22
71917;BME280;59793;46.506;6.674;2022-12-19T06:46:11;98114.34;;;4.89;78.06
71917;BME280;59793;46.506;6.674;2022-12-19T06:48:36;98105.63;;;4.74;77.96
71917;BME280;59793;46.506;6.674;2022-12-19T06:51:01;98114.81;;;4.67;78.84
71917;BME280;59793;46.506;6.674;2022-12-19T06:53:27;98103.13;;;4.59;79.08
71917;BME280;59793;46.506;6.674;2022-12-19T06:55:53;98111.94;;;4.68;78.34
71917;BME280;59793;46.506;6.674;2022-12-19T06:58:19;98113.22;;;4.71;78.61
71917;BME280;59793;46.506;6.674;2022-12-19T07:00:45;98100.94;;;4.71;78.89
71917;BME280;59793;46.506;6.674;2022-12-19T07:03:10;98104.47;;;4.57;78.25
71917;BME280;59793;46.506;6.674;2022-12-19T07:05:37;98114.38;;;4.60;78.83
71917;BME280;59793;46.506;6.674;2022-12-19T07:08:04;98119.81;;;4.63;78.77
71917;BME280;59793;46.506;6.674;2022-12-19T07:10:29;98117.97;;;4.64;79.88
71917;BME280;59793;46.506;6.674;2022-12-19T07:12:54;98114.03;;;4.66;80.03
71917;BME280;59793;46.506;6.674;2022-12-19T07:15:20;98121.28;;;4.74;79.38
71917;BME280;59793;46.506;6.674;2022-12-19T07:17:45;98116.53;;;4.76;79.81
71917;BME280;59793;46.506;6.674;2022-12-19T07:20:11;98118.75;;;4.64;78.96
71917;BME280;59793;46.506;6.674;2022-12-19T07:22:37;98124.44;;;4.71;78.12
71917;BME280;59793;46.506;6.674;2022-12-19T07:25:02;98128.81;;;4.76;78.38
71917;BME280;59793;46.506;6.674;2022-12-19T07:27:28;98126.63;;;4.88;77.98
71917;BME280;59793;46.506;6.674;2022-12-19T07:29:54;98118.97;;;4.97;78.27
71917;BME280;59793;46.506;6.674;2022-12-19T07:32:19;98126.25;;;5.00;78.61
71917;BME280;59793;46.506;6.674;2022-12-19T07:34:45;98130.06;;;5.08;77.81
71917;BME280;59793;46.506;6.674;2022-12-19T07:37:10;98130.75;;;5.18;77.86
71917;BME280;59793;46.506;6.674;2022-12-19T07:39:35;98125.75;;;5.22;77.35
71917;BME280;59793;46.506;6.674;2022-12-19T07:42:01;98134.09;;;5.24;76.33
71917;BME280;59793;46.506;6.674;2022-12-19T07:44:26;98132.97;;;5.06;76.13
71917;BME280;59793;46.506;6.674;2022-12-19T07:46:51;98137.34;;;5.11;75.83
71917;BME280;59793;46.506;6.674;2022-12-19T07:49:16;98139.78;;;5.26;75.25
71917;BME280;59793;46.506;6.674;2022-12-19T07:51:41;98142.63;;;5.30;75.05
71917;BME280;59793;46.506;6.674;2022-12-19T07:54:07;98144.31;;;5.20;75.02
71917;BME280;59793;46.506;6.674;2022-12-19T07:56:32;98149.75;;;5.24;74.69
71917;BME280;59793;46.506;6.674;2022-12-19T07:58:57;98142.41;;;5.50;74.89
71917;BME280;59793;46.506;6.674;2022-12-19T08:01:22;98145.53;;;5.90;73.67
71917;BME280;59793;46.506;6.674;2022-12-19T08:03:48;98132.16;;;6.15;72.74
71917;BME280;59793;46.506;6.674;2022-12-19T08:06:13;98147.41;;;6.27;72.09
71917;BME280;59793;46.506;6.674;2022-12-19T08:08:38;98140.84;;;6.30;71.83
71917;BME280;59793;46.506;6.674;2022-12-19T08:11:04;98147.97;;;6.57;71.32
71917;BME280;59793;46.506;6.674;2022-12-19T08:13:30;98151.97;;;7.01;70.78
71917;BME280;59793;46.506;6.674;2022-12-19T08:15:58;98158.19;;;7.18;70.19
71917;BME280;59793;46.506;6.674;2022-12-19T08:18:23;98152.84;;;7.37;70.21
71917;BME280;59793;46.506;6.674;2022-12-19T08:20:49;98160.81;;;7.46;69.94
71917;BME280;59793;46.506;6.674;2022-12-19T08:23:15;98156.81;;;7.49;69.81
71917;BME280;59793;46.506;6.674;2022-12-19T08:25:40;98161.00;;;7.50;69.71
71917;BME280;59793;46.506;6.674;2022-12-19T08:28:06;98160.31;;;7.44;70.20
71917;BME280;59793;46.506;6.674;2022-12-19T08:30:31;98154.09;;;7.54;70.17
71917;BME280;59793;46.506;6.674;2022-12-19T08:32:56;98150.19;;;7.79;69.80
71917;BME280;59793;46.506;6.674;2022-12-19T08:35:21;98151.00;;;8.02;69.47
71917;BME280;59793;46.506;6.674;2022-12-19T08:37:47;98159.34;;;8.04;69.45
71917;BME280;59793;46.506;6.674;2022-12-19T08:40:12;98155.78;;;8.00;69.49
71917;BME280;59793;46.506;6.674;2022-12-19T08:42:37;98147.81;;;7.91;69.79
71917;BME280;59793;46.506;6.674;2022-12-19T08:45:02;98139.38;;;7.80;69.92
71917;BME280;59793;46.506;6.674;2022-12-19T08:47:28;98142.53;;;7.69;70.77
71917;BME280;59793;46.506;6.674;2022-12-19T08:49:53;98163.50;;;7.69;70.33
71917;BME280;59793;46.506;6.674;2022-12-19T08:52:18;98168.28;;;7.53;71.01
71917;BME280;59793;46.506;6.674;2022-12-19T08:54:44;98164.59;;;7.40;70.37
71917;BME280;59793;46.506;6.674;2022-12-19T08:57:09;98162.66;;;7.18;71.23
71917;BME280;59793;46.506;6.674;2022-12-19T08:59:34;98162.06;;;7.35;71.70
71917;BME280;59793;46.506;6.674;2022-12-19T09:01:59;98159.44;;;7.49;71.67
71917;BME280;59793;46.506;6.674;2022-12-19T09:04:25;98159.53;;;7.57;71.44
71917;BME280;59793;46.506;6.674;2022-12-19T09:06:50;98154.09;;;7.68;71.48
71917;BME280;59793;46.506;6.674;2022-12-19T09:09:16;98163.88;;;7.76;71.93
71917;BME280;59793;46.506;6.674;2022-12-19T09:11:41;98160.09;;;7.82;72.72
71917;BME280;59793;46.506;6.674;2022-12-19T09:14:06;98163.19;;;7.84;72.77
71917;BME280;59793;46.506;6.674;2022-12-19T09:16:31;98152.25;;;7.68;72.44
71917;BME280;59793;46.506;6.674;2022-12-19T09:18:57;98151.66;;;7.71;72.65
71917;BME280;59793;46.506;6.674;2022-12-19T09:21:26;98158.06;;;7.79;73.12
71917;BME280;59793;46.506;6.674;2022-12-19T09:23:53;98169.41;;;7.88;72.78
71917;BME280;59793;46.506;6.674;2022-12-19T09:26:20;98162.16;;;8.07;71.99
71917;BME280;59793;46.506;6.674;2022-12-19T09:28:45;98165.84;;;8.20;71.80
71917;BME280;59793;46.506;6.674;2022-12-19T09:31:12;98162.06;;;8.35;71.17
71917;BME280;59793;46.506;6.674;2022-12-19T09:33:38;98174.75;;;8.55;69.39
71917;BME280;59793;46.506;6.674;2022-12-19T09:36:03;98162.88;;;8.58;68.71
71917;BME280;59793;46.506;6.674;2022-12-19T09:38:31;98171.28;;;8.69;69.03
71917;BME280;59793;46.506;6.674;2022-12-19T09:48:31;98173.72;;;9.19;67.09
71917;BME280;59793;46.506;6.674;2022-12-19T09:51:08;98175.22;;;9.60;65.62
71917;BME280;59793;46.506;6.674;2022-12-19T09:53:39;98172.00;;;9.63;64.83
71917;BME280;59793;46.506;6.674;2022-12-19T09:56:09;98181.47;;;9.72;64.63
71917;BME280;59793;46.506;6.674;2022-12-19T09:58:38;98176.53;;;9.79;64.87
71917;BME280;59793;46.506;6.674;2022-12-19T10:01:06;98178.09;;;10.06;64.62
71917;BME280;59793;46.506;6.674;2022-12-19T10:08:41;98170.22;;;11.53;59.17
71917;BME280;59793;46.506;6.674;2022-12-19T10:16:20;98159.69;;;12.36;56.61
71917;BME280;59793;46.506;6.674;2022-12-19T10:18:51;98153.91;;;12.22;57.02
71917;BME280;59793;46.506;6.674;2022-12-19T10:21:38;98152.53;;;11.74;57.38
71917;BME280;59793;46.506;6.674;2022-12-19T10:26:40;98138.84;;;10.83;60.51
71917;BME280;59793;46.506;6.674;2022-12-19T10:31:36;98144.91;;;10.75;61.55
71917;BME280;59793;46.506;6.674;2022-12-19T10:34:22;98144.88;;;10.92;60.85
71917;BME280;59793;46.506;6.674;2022-12-19T10:36:51;98145.34;;;10.77;60.76
71917;BME280;59793;46.506;6.674;2022-12-19T10:41:44;98138.13;;;10.22;63.26
71917;BME280;59793;46.506;6.674;2022-12-19T10:44:12;98131.31;;;10.12;63.49
71917;BME280;59793;46.506;6.674;2022-12-19T10:49:10;98134.75;;;10.21;63.42
71917;BME280;59793;46.506;6.674;2022-12-19T10:51:37;98127.75;;;10.17;63.64
71917;BME280;59793;46.506;6.674;2022-12-19T10:54:02;98129.31;;;10.18;63.06
71917;BME280;59793;46.506;6.674;2022-12-19T10:56:28;98126.19;;;10.50;62.75
71917;BME280;59793;46.506;6.674;2022-12-19T10:58:55;98125.00;;;10.39;63.02
71917;BME280;59793;46.506;6.674;2022-12-19T11:03:51;98125.59;;;10.53;62.32
71917;BME280;59793;46.506;6.674;2022-12-19T11:07:18;98125.38;;;10.76;62.12
71917;BME280;59793;46.506;6.674;2022-12-19T11:11:40;98132.84;;;10.65;63.20
71917;BME280;59793;46.506;6.674;2022-12-19T11:14:17;98125.47;;;10.88;62.51
71917;BME280;59793;46.506;6.674;2022-12-19T11:16:44;98126.00;;;10.73;63.09
71917;BME280;59793;46.506;6.674;2022-12-19T11:22:05;98119.34;;;11.43;60.87
71917;BME280;59793;46.506;6.674;2022-12-19T11:24:35;98113.03;;;10.97;61.85
71917;BME280;59793;46.506;6.674;2022-12-19T11:27:00;98104.72;;;11.46;60.66
71917;BME280;59793;46.506;6.674;2022-12-19T11:31:58;98106.06;;;12.36;58.01
71917;BME280;59793;46.506;6.674;2022-12-19T11:34:25;98106.28;;;12.88;56.32
71917;BME280;59793;46.506;6.674;2022-12-19T11:39:21;98094.16;;;12.63;56.61
71917;BME280;59793;46.506;6.674;2022-12-19T11:41:56;98100.72;;;12.57;56.88
71917;BME280;59793;46.506;6.674;2022-12-19T11:44:26;98099.72;;;12.49;56.93
71917;BME280;59793;46.506;6.674;2022-12-19T11:47:16;98090.97;;;12.36;57.67
71917;BME280;59793;46.506;6.674;2022-12-19T11:49:42;98091.78;;;12.49;56.40
71917;BME280;59793;46.506;6.674;2022-12-19T11:52:23;98078.69;;;12.53;56.83
71917;BME280;59793;46.506;6.674;2022-12-19T11:55:29;98083.63;;;12.30;57.65
71917;BME280;59793;46.506;6.674;2022-12-19T11:57:45;98083.66;;;12.09;58.51
71917;BME280;59793;46.506;6.674;2022-12-19T12:00:12;98088.97;;;12.21;57.76
71917;BME280;59793;46.506;6.674;2022-12-19T12:07:50;98085.25;;;11.80;59.68
71917;BME280;59793;46.506;6.674;2022-12-19T12:10:18;98077.44;;;12.05;59.00
71917;BME280;59793;46.506;6.674;2022-12-19T12:17:59;98075.22;;;13.34;55.02
71917;BME280;59793;46.506;6.674;2022-12-19T12:20:36;98063.81;;;13.99;53.52
71917;BME280;59793;46.506;6.674;2022-12-19T12:28:39;98077.38;;;11.71;59.29
71917;BME280;59793;46.506;6.674;2022-12-19T12:31:24;98079.69;;;11.31;61.21
71917;BME280;59793;46.506;6.674;2022-12-19T12:36:26;98072.66;;;11.35;61.07
71917;BME280;59793;46.506;6.674;2022-12-19T12:39:03;98068.63;;;12.01;59.18
71917;BME280;59793;46.506;6.674;2022-12-19T12:44:36;98067.72;;;12.63;56.49
71917;BME280;59793;46.506;6.674;2022-12-19T12:49:38;98059.78;;;12.63;56.72
71917;BME280;59793;46.506;6.674;2022-12-19T12:52:05;98061.22;;;12.73;56.59
71917;BME280;59793;46.506;6.674;2022-12-19T12:54:33;98059.13;;;13.03;55.95
71917;BME280;59793;46.506;6.674;2022-12-19T12:57:00;98063.94;;;14.18;53.29
71917;BME280;59793;46.506;6.674;2022-12-19T12:59:27;98050.13;;;16.13;48.49
71917;BME280;59793;46.506;6.674;2022-12-19T13:01:59;98053.22;;;17.64;44.24
71917;BME280;59793;46.506;6.674;2022-12-19T13:04:35;98037.19;;;18.31;41.78
71917;BME280;59793;46.506;6.674;2022-12-19T13:09:35;98037.00;;;18.54;41.93
71917;BME280;59793;46.506;6.674;2022-12-19T13:12:02;98034.13;;;19.36;38.98
71917;BME280;59793;46.506;6.674;2022-12-19T13:14:47;98030.56;;;19.07;39.59
71917;BME280;59793;46.506;6.674;2022-12-19T13:17:59;98022.50;;;18.11;41.32
71917;BME280;59793;46.506;6.674;2022-12-19T13:24:56;98038.13;;;16.46;45.36
71917;BME280;59793;46.506;6.674;2022-12-19T13:32:18;98037.13;;;16.08;46.99
71917;BME280;59793;46.506;6.674;2022-12-19T13:34:50;98027.00;;;15.20;48.78
71917;BME280;59793;46.506;6.674;2022-12-19T13:37:21;98033.22;;;15.28;49.15
71917;BME280;59793;46.506;6.674;2022-12-19T13:42:20;98039.06;;;15.34;49.23
71917;BME280;59793;46.506;6.674;2022-12-19T13:45:06;98027.06;;;14.89;50.22
71917;BME280;59793;46.506;6.674;2022-12-19T13:47:34;98022.44;;;14.86;51.02
71917;BME280;59793;46.506;6.674;2022-12-19T13:50:02;98021.78;;;14.13;52.81
71917;BME280;59793;46.506;6.674;2022-12-19T13:52:28;98013.19;;;13.88;53.65
71917;BME280;59793;46.506;6.674;2022-12-19T13:54:54;98018.63;;;14.07;52.98
71917;BME280;59793;46.506;6.674;2022-12-19T13:57:30;98018.63;;;13.79;53.94
71917;BME280;59793;46.506;6.674;2022-12-19T13:59:59;98033.00;;;13.78;54.59
71917;BME280;59793;46.506;6.674;2022-12-19T14:02:30;98028.25;;;14.75;52.23
71917;BME280;59793;46.506;6.674;2022-12-19T14:04:56;98041.13;;;15.79;48.82
71917;BME280;59793;46.506;6.674;2022-12-19T14:07:33;98046.78;;;16.62;46.65
71917;BME280;59793;46.506;6.674;2022-12-19T14:09:59;98046.28;;;18.27;42.43
71917;BME280;59793;46.506;6.674;2022-12-19T14:12:26;98044.56;;;18.93;40.80
71917;BME280;59793;46.506;6.674;2022-12-19T14:15:28;98054.22;;;19.78;39.43
71917;BME280;59793;46.506;6.674;2022-12-19T14:17:53;98058.97;;;21.35;35.07
71917;BME280;59793;46.506;6.674;2022-12-19T14:20:20;98041.31;;;21.30;35.36
71917;BME280;59793;46.506;6.674;2022-12-19T14:22:45;98045.19;;;21.18;35.26
71917;BME280;59793;46.506;6.674;2022-12-19T14:25:11;98044.00;;;21.23;35.00
71917;BME280;59793;46.506;6.674;2022-12-19T14:27:40;98041.69;;;21.46;34.37
71917;BME280;59793;46.506;6.674;2022-12-19T14:30:13;98034.84;;;21.35;34.38
71917;BME280;59793;46.506;6.674;2022-12-19T14:32:39;98032.94;;;20.24;36.47
71917;BME280;59793;46.506;6.674;2022-12-19T14:35:06;98024.69;;;19.53;37.54
71917;BME280;59793;46.506;6.674;2022-12-19T14:37:34;98045.25;;;18.79;39.43
71917;BME280;59793;46.506;6.674;2022-12-19T14:40:05;98045.69;;;17.73;42.04
71917;BME280;59793;46.506;6.674;2022-12-19T14:42:31;98040.44;;;17.47;42.48
71917;BME280;59793;46.506;6.674;2022-12-19T14:45:32;98050.03;;;17.25;43.16
71917;BME280;59793;46.506;6.674;2022-12-19T14:47:58;98044.59;;;16.91;43.84
71917;BME280;59793;46.506;6.674;2022-12-19T14:53:08;98040.56;;;16.32;45.52
71917;BME280;59793;46.506;6.674;2022-12-19T14:55:40;98034.63;;;15.76;46.85
71917;BME280;59793;46.506;6.674;2022-12-19T14:58:06;98022.13;;;15.61;47.25
71917;BME280;59793;46.506;6.674;2022-12-19T15:00:40;98034.56;;;15.38;47.81
71917;BME280;59793;46.506;6.674;2022-12-19T15:03:07;98024.81;;;14.91;49.25
71917;BME280;59793;46.506;6.674;2022-12-19T15:05:32;98041.13;;;15.09;48.24
71917;BME280;59793;46.506;6.674;2022-12-19T15:07:57;98021.03;;;14.28;50.53
71917;BME280;59793;46.506;6.674;2022-12-19T15:10:30;98023.97;;;13.67;52.64